Time;durP1;ratioP1;P1;durP2;ratioP2;P2;SDS_P1;SDS_P2;PMS_P1;PMS_P2;Temp;Humidity;BMP_temperature;BMP_pressure;BME280_temperature;BME280_humidity;BME280_pressure;Samples;Min_cycle;Max_cycle;Signal;HPM_P1;HPM_P2
2023/11/25 00:00:58;;;;;;;6.75;1.30;;;9.00;62.40;10.70;101078.00;;;;4989433;28;20217;-77
2023/11/25 00:03:25;;;;;;;7.53;1.25;;;9.00;62.50;10.70;101079.00;;;;4986912;28;20209;-77
2023/11/25 00:05:52;;;;;;;3.90;0.80;;;9.00;62.50;10.70;101088.00;;;;4969738;28;20190;-77
2023/11/25 00:08:19;;;;;;;6.13;1.13;;;9.00;62.60;10.60;101081.00;;;;4973069;28;20202;-77
2023/11/25 00:10:47;;;;;;;5.07;1.52;;;8.90;62.60;10.60;101074.00;;;;4983805;28;20700;-76
2023/11/25 00:13:15;;;;;;;2.55;0.98;;;8.90;62.70;10.60;101079.00;;;;4988475;28;20280;-77
2023/11/25 00:15:42;;;;;;;5.13;1.52;;;8.90;62.80;10.60;101074.00;;;;4987433;28;20198;-76
2023/11/25 00:18:12;;;;;;;4.47;1.15;;;8.80;62.80;10.50;101081.00;;;;4986383;28;20225;-77
2023/11/25 00:20:39;;;;;;;6.10;1.88;;;8.80;62.90;10.50;101078.00;;;;4969260;28;20245;-76
2023/11/25 00:23:07;;;;;;;5.38;1.30;;;8.80;63.10;10.50;101084.00;;;;4969166;28;20290;-76
2023/11/25 00:25:34;;;;;;;7.35;1.50;;;8.80;63.20;10.50;101077.00;;;;4986390;28;20209;-77
2023/11/25 00:28:01;;;;;;;7.55;1.65;;;8.80;63.30;10.50;101066.00;;;;4988105;28;20205;-77
2023/11/25 00:30:29;;;;;;;6.13;1.38;;;8.80;63.40;10.40;101065.00;;;;4987804;28;20213;-77
2023/11/25 00:32:57;;;;;;;6.25;1.25;;;8.80;63.40;10.40;101082.00;;;;4988189;28;20656;-77
2023/11/25 00:35:25;;;;;;;14.07;1.35;;;8.80;63.50;10.40;101085.00;;;;4987624;28;20198;-77
2023/11/25 00:37:52;;;;;;;6.32;0.90;;;8.80;63.50;10.50;101083.00;;;;4987357;28;20201;-77
2023/11/25 00:40:19;;;;;;;6.35;0.85;;;8.80;63.60;10.50;101088.00;;;;4998587;28;20744;-77
2023/11/25 00:42:47;;;;;;;5.20;1.42;;;8.90;63.60;10.50;101087.00;;;;4987233;28;20205;-77
2023/11/25 00:45:15;;;;;;;4.93;1.30;;;8.90;63.70;10.50;101105.00;;;;4987985;28;20714;-77
2023/11/25 00:47:42;;;;;;;4.72;0.90;;;8.90;63.70;10.50;101114.00;;;;4974328;28;20205;-77
2023/11/25 00:50:10;;;;;;;7.32;0.82;;;8.90;63.70;10.50;101110.00;;;;4989071;28;20585;-77
2023/11/25 00:52:39;;;;;;;4.25;0.85;;;8.90;63.80;10.50;101118.00;;;;4991147;28;21088;-77
2023/11/25 00:55:08;;;;;;;9.23;2.25;;;8.90;63.80;10.60;101111.00;;;;4991517;28;20683;-77
2023/11/25 00:57:35;;;;;;;3.38;0.90;;;9.00;63.80;10.60;101123.00;;;;4991680;28;20208;-77
2023/11/25 01:00:04;;;;;;;3.97;0.60;;;9.00;64.00;10.60;101115.00;;;;4999835;28;20193;-77
2023/11/25 01:02:31;;;;;;;5.80;0.82;;;9.00;64.00;10.70;101102.00;;;;4994393;28;20251;-77
2023/11/25 01:04:58;;;;;;;5.32;1.17;;;9.10;64.10;10.70;101102.00;;;;4991518;28;20591;-77
2023/11/25 01:07:25;;;;;;;5.68;1.15;;;9.10;64.10;10.80;101096.00;;;;4992199;28;20216;-78
2023/11/25 01:09:53;;;;;;;5.50;1.10;;;9.10;64.10;10.80;101100.00;;;;4977189;28;20190;-77
2023/11/25 01:12:20;;;;;;;3.47;1.20;;;9.20;64.20;10.80;101108.00;;;;4994027;28;20226;-77
2023/11/25 01:14:47;;;;;;;2.75;0.68;;;9.20;64.20;10.90;101122.00;;;;5011018;28;20633;-77
2023/11/25 01:17:14;;;;;;;4.28;1.27;;;9.20;64.20;10.90;101119.00;;;;5011419;28;20200;-77
2023/11/25 01:19:41;;;;;;;4.25;0.80;;;9.20;64.30;11.00;101121.00;;;;4978558;28;20661;-77
2023/11/25 01:22:09;;;;;;;2.33;0.93;;;9.30;64.40;11.00;101102.00;;;;4984063;28;20213;-77
2023/11/25 01:24:36;;;;;;;4.72;1.25;;;9.30;64.40;11.10;101114.00;;;;4990927;28;20193;-77
2023/11/25 01:27:06;;;;;;;3.45;1.10;;;9.30;64.40;11.10;101110.00;;;;4991625;28;20201;-77
2023/11/25 01:29:34;;;;;;;4.53;1.48;;;9.40;64.40;11.10;101101.00;;;;4995876;28;20208;-77
2023/11/25 01:32:01;;;;;;;4.30;1.08;;;9.40;64.30;11.10;101106.00;;;;4998149;28;20233;-77
2023/11/25 01:34:28;;;;;;;2.63;0.55;;;9.40;64.30;11.10;101109.00;;;;4991083;28;20208;-77
2023/11/25 01:36:56;;;;;;;4.47;0.93;;;9.40;64.20;11.10;101107.00;;;;4991255;28;20198;-77
2023/11/25 01:39:24;;;;;;;2.83;0.65;;;9.40;64.00;11.00;101113.00;;;;4989736;28;20213;-77
2023/11/25 01:41:52;;;;;;;3.03;0.80;;;9.30;63.90;11.00;101108.00;;;;4990315;28;20193;-77
2023/11/25 01:44:22;;;;;;;1.55;0.50;;;9.30;63.80;11.00;101114.00;;;;4990914;28;20640;-77
2023/11/25 01:46:51;;;;;;;5.88;1.10;;;9.30;63.80;10.90;101117.00;;;;4990171;28;20264;-77
2023/11/25 01:49:21;;;;;;;2.78;0.98;;;9.30;63.80;10.90;101105.00;;;;4991106;28;20206;-77
2023/11/25 01:51:52;;;;;;;3.75;0.63;;;9.30;63.70;10.90;101111.00;;;;4989761;28;20222;-77
2023/11/25 01:54:21;;;;;;;2.42;1.10;;;9.20;63.70;10.90;101116.00;;;;4990677;28;20630;-77
2023/11/25 01:56:54;;;;;;;2.33;0.38;;;9.10;63.70;10.80;101118.00;;;;4990869;28;20236;-77
2023/11/25 01:59:26;;;;;;;3.67;1.00;;;9.10;63.80;10.80;101121.00;;;;4993188;28;20205;-77
2023/11/25 02:01:54;;;;;;;4.18;0.70;;;9.10;63.80;10.80;101122.00;;;;4999467;28;20213;-77
2023/11/25 02:04:22;;;;;;;3.38;0.50;;;9.00;63.70;10.70;101123.00;;;;4991171;28;20668;-77
2023/11/25 02:06:49;;;;;;;4.50;0.68;;;9.00;63.80;10.70;101116.00;;;;4990344;28;20277;-78
2023/11/25 02:09:17;;;;;;;1.77;0.45;;;8.90;63.70;10.70;101118.00;;;;4990491;28;20217;-77
2023/11/25 02:12:01;;;;;;;1.23;0.15;;;8.90;63.80;10.50;101115.00;;;;4988984;28;20221;-77
2023/11/25 02:14:30;;;;;;;3.30;0.40;;;8.80;63.80;10.50;101111.00;;;;4971634;28;20206;-77
2023/11/25 02:16:59;;;;;;;3.92;0.50;;;8.80;63.80;10.50;101106.00;;;;4970854;28;20229;-77
2023/11/25 02:19:28;;;;;;;4.82;0.52;;;8.70;63.90;10.50;101105.00;;;;4982549;28;20578;-77
2023/11/25 02:21:56;;;;;;;2.15;0.60;;;8.70;63.90;10.50;101108.00;;;;4989600;28;21053;-77
2023/11/25 02:24:26;;;;;;;2.65;0.55;;;8.70;64.00;10.40;101114.00;;;;4990916;28;20212;-77
2023/11/25 02:26:59;;;;;;;5.28;0.40;;;8.60;64.00;10.30;101107.00;;;;4991853;28;20335;-77
2023/11/25 02:29:27;;;;;;;3.97;0.68;;;8.60;64.10;10.40;101116.00;;;;5005465;28;20202;-77
2023/11/25 02:31:53;;;;;;;3.88;0.60;;;8.50;64.00;10.30;101113.00;;;;4988924;28;20225;-76
2023/11/25 02:34:21;;;;;;;7.47;1.30;;;8.50;64.10;10.30;101108.00;;;;4990427;28;20217;-77
2023/11/25 02:36:49;;;;;;;4.28;0.47;;;8.40;64.00;10.20;101111.00;;;;4989416;28;20241;-77
2023/11/25 02:39:18;;;;;;;3.33;0.50;;;8.40;64.10;10.20;101106.00;;;;4988576;28;20568;-77
2023/11/25 02:41:49;;;;;;;2.05;0.40;;;8.30;64.10;10.10;101096.00;;;;4993344;28;21120;-77
2023/11/25 02:44:16;;;;;;;3.40;0.75;;;8.30;64.10;10.10;101094.00;;;;5009861;28;20687;-77
2023/11/25 02:46:45;;;;;;;2.70;1.02;;;8.30;64.20;10.10;101087.00;;;;5003519;28;20213;-77
2023/11/25 02:49:12;;;;;;;4.95;0.60;;;8.20;65.00;10.10;101091.00;;;;4989583;28;20201;-77
2023/11/25 02:51:39;;;;;;;2.97;0.50;;;8.20;64.40;10.00;101090.00;;;;4990193;28;20228;-77
2023/11/25 02:54:06;;;;;;;2.58;0.47;;;8.20;64.30;10.00;101090.00;;;;4990602;28;20243;-77
2023/11/25 02:56:35;;;;;;;2.17;0.60;;;8.10;64.30;10.00;101084.00;;;;4990055;28;20285;-77
2023/11/25 02:59:03;;;;;;;1.70;0.47;;;8.10;64.30;9.90;101089.00;;;;4989904;28;20204;-77
2023/11/25 03:01:30;;;;;;;2.83;0.52;;;8.10;64.30;9.90;101082.00;;;;4988293;28;20198;-77
2023/11/25 03:04:01;;;;;;;5.97;0.50;;;8.00;64.20;9.90;101089.00;;;;4989221;28;20204;-77
2023/11/25 03:06:30;;;;;;;4.45;0.90;;;8.00;64.20;9.80;101080.00;;;;4990082;28;20252;-77
2023/11/25 03:08:58;;;;;;;2.72;0.50;;;7.90;64.20;9.80;101087.00;;;;4988524;28;20198;-77
2023/11/25 03:11:26;;;;;;;4.93;1.08;;;7.90;64.30;9.70;101095.00;;;;4984470;28;20194;-77
2023/11/25 03:13:53;;;;;;;3.88;1.10;;;7.80;64.20;9.70;101079.00;;;;4988407;28;20639;-77
2023/11/25 03:16:24;;;;;;;2.08;0.73;;;7.80;64.30;9.60;101094.00;;;;4989465;28;20194;-77
2023/11/25 03:18:53;;;;;;;2.08;0.80;;;7.70;64.30;9.60;101085.00;;;;4988790;28;20267;-77
2023/11/25 03:21:21;;;;;;;3.13;0.80;;;7.70;64.40;9.50;101076.00;;;;4984989;28;20240;-77
2023/11/25 03:23:48;;;;;;;2.17;0.45;;;7.60;64.30;9.50;101077.00;;;;4988583;28;20686;-77
2023/11/25 03:26:16;;;;;;;3.38;0.60;;;7.60;64.40;9.50;101084.00;;;;4994706;28;20672;-77
2023/11/25 03:28:44;;;;;;;8.00;1.20;;;7.60;64.40;9.40;101076.00;;;;4993077;28;20197;-77
2023/11/25 03:31:12;;;;;;;6.60;1.13;;;7.50;64.40;9.40;101082.00;;;;4988144;28;20206;-77
2023/11/25 03:33:40;;;;;;;2.17;0.80;;;7.50;64.40;9.30;101079.00;;;;4988204;28;21133;-77
2023/11/25 03:36:08;;;;;;;2.33;0.80;;;7.40;64.40;9.30;101084.00;;;;4989412;28;20221;-77
2023/11/25 03:38:35;;;;;;;3.13;1.02;;;7.40;64.50;9.30;101083.00;;;;4990924;28;20226;-76
2023/11/25 03:41:02;;;;;;;1.88;0.70;;;7.40;64.50;9.30;101083.00;;;;4988256;28;20345;-77
2023/11/25 03:43:29;;;;;;;2.42;0.80;;;7.30;64.60;9.20;101076.00;;;;4988423;28;20204;-77
2023/11/25 03:45:57;;;;;;;4.22;0.90;;;7.30;64.70;9.20;101067.00;;;;4988849;28;20559;-77
2023/11/25 03:48:23;;;;;;;5.22;0.65;;;7.30;64.70;9.20;101071.00;;;;4988422;28;20680;-77
2023/11/25 03:50:52;;;;;;;4.22;1.00;;;7.20;64.70;9.20;101063.00;;;;4988558;28;20208;-77
2023/11/25 03:53:19;;;;;;;4.05;1.35;;;7.20;64.80;9.20;101065.00;;;;4988255;28;20992;-77
2023/11/25 03:55:46;;;;;;;2.05;0.90;;;7.20;64.90;9.20;101070.00;;;;4988233;28;20206;-77
2023/11/25 03:58:13;;;;;;;3.90;0.82;;;7.20;65.00;9.20;101080.00;;;;4989218;28;20197;-77
2023/11/25 04:00:40;;;;;;;3.78;0.93;;;7.20;65.10;9.20;101078.00;;;;4987001;28;20210;-77
2023/11/25 04:03:07;;;;;;;2.92;0.88;;;7.20;65.30;9.20;101087.00;;;;4988344;28;20205;-77
2023/11/25 04:05:34;;;;;;;3.92;0.80;;;7.20;65.50;9.20;101091.00;;;;4988689;28;20202;-77
2023/11/25 04:08:02;;;;;;;2.83;1.05;;;7.20;65.60;9.20;101089.00;;;;4989118;28;20847;-77
2023/11/25 04:10:29;;;;;;;9.00;1.52;;;7.20;65.80;9.30;101087.00;;;;4987684;28;20209;-77
2023/11/25 04:12:56;;;;;;;5.80;1.27;;;7.30;66.00;9.30;101100.00;;;;4987816;28;20687;-77
2023/11/25 04:15:23;;;;;;;4.35;1.40;;;7.30;66.10;9.30;101105.00;;;;4989431;28;20244;-77
2023/11/25 04:17:50;;;;;;;6.45;1.00;;;7.40;66.20;9.40;101108.00;;;;4988683;28;20211;-76
2023/11/25 04:20:24;;;;;;;3.92;0.98;;;7.40;66.40;9.40;101103.00;;;;4988575;28;20201;-77
2023/11/25 04:22:51;;;;;;;6.43;0.98;;;7.50;66.50;9.50;101101.00;;;;4988244;28;20193;-77
2023/11/25 04:25:21;;;;;;;5.13;1.17;;;7.50;66.50;9.50;101096.00;;;;5000198;28;20205;-77
2023/11/25 04:27:49;;;;;;;8.52;0.90;;;7.60;66.50;9.50;101105.00;;;;5012216;28;20193;-77
2023/11/25 04:30:18;;;;;;;6.43;1.17;;;7.70;66.60;9.60;101109.00;;;;4991968;28;20220;-77
2023/11/25 04:32:48;;;;;;;4.32;0.50;;;7.70;66.60;9.60;101112.00;;;;4992281;28;21054;-77
2023/11/25 04:35:15;;;;;;;7.95;1.00;;;7.80;66.80;9.70;101108.00;;;;4993287;28;20220;-77
2023/11/25 04:37:44;;;;;;;4.15;0.82;;;7.80;66.80;9.70;101110.00;;;;4992553;28;20197;-77
2023/11/25 04:40:12;;;;;;;5.88;1.00;;;7.90;66.90;9.80;101089.00;;;;4991034;28;20228;-77
2023/11/25 04:42:42;;;;;;;6.80;1.27;;;8.00;66.80;9.80;101080.00;;;;4992755;28;20193;-77
2023/11/25 04:45:15;;;;;;;7.13;0.80;;;8.00;66.80;9.90;101079.00;;;;4992345;28;20237;-77
2023/11/25 04:47:44;;;;;;;3.15;0.70;;;8.10;66.80;9.90;101078.00;;;;4993002;28;20237;-77
2023/11/25 04:50:12;;;;;;;3.30;0.75;;;8.20;66.80;9.90;101088.00;;;;4992534;28;20206;-77
2023/11/25 04:52:39;;;;;;;6.00;0.98;;;8.20;66.80;10.00;101115.00;;;;4991999;28;20279;-77
2023/11/25 04:55:09;;;;;;;3.95;0.68;;;8.30;66.90;10.10;101124.00;;;;4991773;28;20660;-77
2023/11/25 04:57:36;;;;;;;3.17;0.57;;;8.30;66.90;10.10;101121.00;;;;4992052;28;20205;-76
2023/11/25 05:00:09;;;;;;;2.03;0.43;;;8.30;67.00;10.10;101107.00;;;;4991076;28;20224;-76
2023/11/25 05:02:36;;;;;;;4.95;0.60;;;8.40;67.00;10.20;101105.00;;;;4991520;28;20200;-77
2023/11/25 05:05:04;;;;;;;2.00;0.35;;;8.50;67.00;10.20;101079.00;;;;4991591;28;20202;-76
2023/11/25 05:07:33;;;;;;;2.88;0.40;;;8.50;66.90;10.20;101065.00;;;;4991667;28;20206;-77
2023/11/25 05:10:00;;;;;;;3.63;0.65;;;8.50;66.90;10.20;101067.00;;;;4991008;28;20232;-77
2023/11/25 05:12:28;;;;;;;3.75;0.30;;;8.60;67.00;10.30;101063.00;;;;4991177;28;20252;-77
2023/11/25 05:14:55;;;;;;;1.73;0.30;;;8.60;66.90;10.30;101063.00;;;;4995236;28;20750;-77
2023/11/25 05:17:23;;;;;;;3.17;0.30;;;8.70;66.80;10.30;101069.00;;;;5010011;28;20204;-77
2023/11/25 05:19:50;;;;;;;2.15;0.40;;;8.70;66.80;10.40;101088.00;;;;4991747;28;20226;-76
2023/11/25 05:22:17;;;;;;;2.38;0.38;;;8.70;66.80;10.40;101099.00;;;;4991773;28;20213;-77
2023/11/25 05:24:44;;;;;;;2.08;0.63;;;8.70;66.80;10.50;101069.00;;;;4992067;28;20574;-77
2023/11/25 05:27:12;;;;;;;1.60;0.20;;;8.80;66.90;10.50;101061.00;;;;4992081;28;20236;-77
2023/11/25 05:29:39;;;;;;;1.38;0.43;;;8.80;66.90;10.60;101059.00;;;;4990885;28;21142;-77
2023/11/25 05:32:08;;;;;;;1.83;0.20;;;8.80;66.80;10.60;101058.00;;;;5009274;28;20205;-77
2023/11/25 05:34:36;;;;;;;2.28;0.60;;;8.90;66.70;10.60;101060.00;;;;4991685;28;20205;-77
2023/11/25 05:37:04;;;;;;;0.80;0.20;;;8.90;66.60;10.60;101052.00;;;;4990501;28;20656;-77
2023/11/25 05:39:31;;;;;;;1.73;0.32;;;8.90;66.60;10.60;101041.00;;;;4991068;28;20699;-77
2023/11/25 05:41:59;;;;;;;1.20;0.20;;;8.90;66.50;10.60;101054.00;;;;4991811;28;20209;-77
2023/11/25 05:44:26;;;;;;;1.48;0.10;;;8.90;66.50;10.60;101053.00;;;;4990691;28;20193;-77
2023/11/25 05:46:55;;;;;;;2.60;0.38;;;8.90;66.50;10.60;101045.00;;;;4991756;28;20205;-78
2023/11/25 05:49:23;;;;;;;0.35;0.17;;;8.90;66.60;10.70;101058.00;;;;4992038;28;20237;-77
2023/11/25 05:51:52;;;;;;;0.73;0.10;;;8.90;66.60;10.70;101065.00;;;;4992101;28;20671;-77
2023/11/25 05:54:19;;;;;;;0.68;0.20;;;9.00;66.70;10.80;101058.00;;;;4991560;28;20234;-77
2023/11/25 05:56:48;;;;;;;0.80;0.30;;;9.00;66.70;10.80;101055.00;;;;4992112;28;20206;-76
2023/11/25 05:59:16;;;;;;;0.20;0.20;;;9.00;66.80;10.80;101031.00;;;;4992219;28;20205;-77
2023/11/25 06:01:43;;;;;;;1.60;0.55;;;9.00;66.70;10.80;101023.00;;;;4990447;28;20206;-78
2023/11/25 06:04:10;;;;;;;2.63;0.15;;;9.00;66.60;10.80;101011.00;;;;4989252;28;20216;-77
2023/11/25 06:06:38;;;;;;;0.70;0.30;;;9.00;66.50;10.70;101016.00;;;;4989489;28;20201;-77
2023/11/25 06:09:11;;;;;;;3.95;0.25;;;9.00;66.40;10.70;101022.00;;;;4987866;28;20626;-77
2023/11/25 06:11:39;;;;;;;2.47;0.60;;;9.00;66.30;10.70;101021.00;;;;4990096;28;20739;-77
2023/11/25 06:14:06;;;;;;;0.22;0.10;;;9.00;66.20;10.70;101030.00;;;;4977472;28;20222;-77
2023/11/25 06:16:34;;;;;;;6.82;0.57;;;9.00;66.20;10.70;101033.00;;;;4971123;28;20256;-77
2023/11/25 06:19:01;;;;;;;1.42;0.22;;;9.00;66.20;10.70;101029.00;;;;4988978;28;20229;-77
2023/11/25 06:21:28;;;;;;;2.03;0.30;;;9.00;66.20;10.70;101037.00;;;;4989470;28;20204;-77
2023/11/25 06:23:55;;;;;;;2.80;0.20;;;9.00;66.30;10.70;101037.00;;;;4989608;28;20193;-77
2023/11/25 06:26:23;;;;;;;2.22;0.38;;;9.00;66.20;10.70;101042.00;;;;4989360;28;20667;-77
2023/11/25 06:28:50;;;;;;;0.15;0.03;;;9.00;66.20;10.80;101043.00;;;;4988201;28;20553;-77
2023/11/25 06:31:18;;;;;;;1.13;0.17;;;9.00;66.20;10.70;101033.00;;;;4986882;28;20224;-77
2023/11/25 06:33:45;;;;;;;0.28;0.10;;;9.00;66.20;10.70;101034.00;;;;4985854;28;20520;-77
2023/11/25 06:36:12;;;;;;;1.10;0.20;;;9.00;66.10;10.70;101036.00;;;;4985557;28;20613;-77
2023/11/25 06:38:40;;;;;;;1.65;0.30;;;9.00;66.20;10.80;101045.00;;;;4984994;28;20202;-77
2023/11/25 06:41:08;;;;;;;1.42;0.13;;;9.00;66.20;10.80;101048.00;;;;4986564;28;20735;-77
2023/11/25 06:43:38;;;;;;;0.20;0.13;;;9.00;66.20;10.80;101040.00;;;;4985620;28;20194;-77
2023/11/25 06:46:05;;;;;;;3.33;0.20;;;9.00;66.40;10.80;101035.00;;;;4986288;28;20201;-77
2023/11/25 06:48:33;;;;;;;3.40;0.55;;;9.00;66.30;10.80;101023.00;;;;4987482;28;20205;-76
2023/11/25 06:51:00;;;;;;;1.13;0.35;;;8.90;66.30;10.80;101023.00;;;;4987629;28;20288;-77
2023/11/25 06:53:29;;;;;;;0.70;0.20;;;8.90;66.30;10.70;101027.00;;;;4985017;28;20213;-77
2023/11/25 06:55:58;;;;;;;0.85;0.10;;;8.90;66.30;10.70;101020.00;;;;4985113;28;20222;-77
2023/11/25 06:58:26;;;;;;;0.40;0.20;;;8.90;66.20;10.70;101025.00;;;;4984418;28;20285;-77
2023/11/25 07:00:57;;;;;;;0.65;0.32;;;8.90;66.20;10.70;101018.00;;;;4986794;28;20202;-77
2023/11/25 07:03:24;;;;;;;1.40;0.28;;;8.90;66.30;10.80;101023.00;;;;4986835;28;20609;-77
2023/11/25 07:05:51;;;;;;;1.42;0.30;;;8.90;66.30;10.70;101036.00;;;;4987214;28;20205;-76
2023/11/25 07:08:18;;;;;;;0.73;0.47;;;8.90;66.30;10.80;101041.00;;;;4973751;28;20202;-77
2023/11/25 07:10:53;;;;;;;2.45;0.45;;;8.90;66.40;10.80;101043.00;;;;4974520;28;20413;-77
2023/11/25 07:13:21;;;;;;;2.08;0.80;;;8.90;66.50;10.80;101055.00;;;;4983705;28;20221;-77
2023/11/25 07:15:48;;;;;;;5.25;0.80;;;8.90;66.60;10.80;101032.00;;;;4986198;28;20207;-76
2023/11/25 07:18:18;;;;;;;1.73;0.52;;;8.90;66.60;10.70;101033.00;;;;4984556;28;20950;-76
2023/11/25 07:20:46;;;;;;;3.35;0.73;;;8.90;66.70;10.80;101020.00;;;;4985773;28;20209;-76
2023/11/25 07:23:14;;;;;;;2.33;0.60;;;8.90;66.70;10.70;101018.00;;;;4990827;28;20629;-75
2023/11/25 07:25:45;;;;;;;1.70;0.50;;;8.90;66.70;10.70;101009.00;;;;4985261;28;20194;-76
2023/11/25 07:28:12;;;;;;;0.38;0.28;;;8.90;66.60;10.70;101017.00;;;;4988770;28;20201;-75
2023/11/25 07:30:41;;;;;;;2.35;0.55;;;8.90;66.60;10.70;101012.00;;;;4988800;28;20213;-76
2023/11/25 07:33:09;;;;;;;4.57;0.70;;;9.00;66.70;10.70;101013.00;;;;4987906;28;20775;-75
2023/11/25 07:35:37;;;;;;;3.25;0.32;;;8.90;66.60;10.60;101017.00;;;;4983758;28;20339;-75
2023/11/25 07:38:04;;;;;;;0.88;0.10;;;9.00;66.60;10.70;101021.00;;;;4983142;28;20202;-75
2023/11/25 07:40:31;;;;;;;4.25;0.50;;;9.00;66.60;10.60;101018.00;;;;4987640;28;20225;-75
2023/11/25 07:42:58;;;;;;;1.90;0.40;;;8.90;66.50;10.60;101015.00;;;;4988110;28;20219;-75
2023/11/25 07:45:25;;;;;;;1.20;0.20;;;8.90;66.50;10.60;101017.00;;;;4987864;28;20205;-75
2023/11/25 07:47:52;;;;;;;1.98;0.40;;;8.90;66.50;10.70;101020.00;;;;4986069;28;20578;-75
2023/11/25 07:50:21;;;;;;;1.73;0.45;;;9.00;66.70;10.70;101029.00;;;;4988261;28;20731;-75
2023/11/25 07:52:50;;;;;;;1.05;0.30;;;8.90;66.80;10.70;101039.00;;;;4991100;28;20616;-76
2023/11/25 07:55:18;;;;;;;2.15;0.50;;;9.00;67.00;10.80;101032.00;;;;4989216;28;20582;-76
2023/11/25 07:57:46;;;;;;;2.22;0.57;;;9.00;67.10;10.80;101008.00;;;;4987856;28;20194;-76
2023/11/25 08:00:16;;;;;;;1.10;0.40;;;9.10;67.20;10.90;101008.00;;;;4986665;28;20205;-76
2023/11/25 08:02:44;;;;;;;1.27;0.13;;;9.10;67.20;10.90;101000.00;;;;4987204;28;20223;-76
2023/11/25 08:05:21;;;;;;;0.70;0.13;;;9.10;67.20;10.90;101036.00;;;;4986876;28;20197;-76
2023/11/25 08:07:50;;;;;;;0.17;0.08;;;9.20;67.20;10.90;101034.00;;;;4985847;28;20197;-76
2023/11/25 08:10:17;;;;;;;2.78;0.73;;;9.20;67.20;11.00;101029.00;;;;4985865;28;20201;-75
2023/11/25 08:12:45;;;;;;;1.08;0.20;;;9.20;67.00;10.90;101021.00;;;;4987594;28;20574;-75
2023/11/25 08:15:13;;;;;;;0.98;0.28;;;9.30;67.00;10.90;101028.00;;;;4988147;28;20283;-75
2023/11/25 08:17:41;;;;;;;0.55;0.10;;;9.30;66.80;10.90;101035.00;;;;4988443;28;20206;-75
2023/11/25 08:20:10;;;;;;;3.53;0.40;;;9.30;66.80;10.80;101037.00;;;;4987763;28;20556;-75
2023/11/25 08:22:38;;;;;;;0.85;0.20;;;9.30;66.70;10.80;101027.00;;;;4987681;28;20197;-75
2023/11/25 08:25:09;;;;;;;2.42;0.20;;;9.30;66.70;10.80;101018.00;;;;4991744;28;20198;-75
2023/11/25 08:27:36;;;;;;;1.85;0.32;;;9.30;66.70;10.80;101021.00;;;;4987033;28;21004;-75
2023/11/25 08:30:06;;;;;;;1.20;0.15;;;9.30;66.70;10.80;101025.00;;;;4988176;28;20205;-76
2023/11/25 08:32:34;;;;;;;2.08;0.30;;;9.30;66.60;10.80;101021.00;;;;4988406;28;20212;-75
2023/11/25 08:35:01;;;;;;;0.85;0.22;;;9.20;66.50;10.80;101030.00;;;;4986892;28;20726;-75
2023/11/25 08:37:28;;;;;;;0.88;0.20;;;9.20;66.40;10.80;101036.00;;;;4989285;28;20190;-75
2023/11/25 08:39:55;;;;;;;1.13;0.20;;;9.20;66.40;10.80;101022.00;;;;4987855;28;20586;-75
2023/11/25 08:42:28;;;;;;;0.63;0.10;;;9.20;66.40;10.80;101012.00;;;;4988686;28;20209;-75
2023/11/25 08:44:55;;;;;;;0.60;0.20;;;9.20;66.40;10.90;101025.00;;;;4986980;28;20204;-75
2023/11/25 08:47:22;;;;;;;1.50;0.22;;;9.20;66.60;11.00;101039.00;;;;4988511;28;20711;-76
2023/11/25 08:49:50;;;;;;;1.65;0.20;;;9.30;66.80;11.00;101036.00;;;;4987466;28;20201;-75
2023/11/25 08:52:17;;;;;;;0.50;0.13;;;9.30;66.90;11.10;101030.00;;;;4988525;28;20208;-76
2023/11/25 08:54:48;;;;;;;0.55;0.00;;;9.30;67.10;11.10;101036.00;;;;4986932;28;20226;-75
2023/11/25 08:57:17;;;;;;;1.95;0.50;;;9.40;67.20;11.10;101045.00;;;;4968456;28;20485;-75
2023/11/25 08:59:47;;;;;;;3.53;0.30;;;9.40;67.20;11.20;101042.00;;;;4974783;28;20664;-75
2023/11/25 09:02:21;;;;;;;2.63;0.35;;;9.40;67.20;11.20;101046.00;;;;4987879;28;20261;-75
2023/11/25 09:04:49;;;;;;;4.00;0.47;;;9.50;67.20;11.30;101039.00;;;;4988623;28;20201;-75
2023/11/25 09:07:17;;;;;;;1.50;0.38;;;9.50;67.10;11.30;101048.00;;;;4988146;28;20198;-75
2023/11/25 09:09:49;;;;;;;1.42;0.52;;;9.60;67.00;11.30;101041.00;;;;4993355;28;20925;-76
2023/11/25 09:12:17;;;;;;;3.40;0.50;;;9.60;67.00;11.30;101039.00;;;;4995313;28;20214;-75
2023/11/25 09:14:46;;;;;;;3.00;0.40;;;9.60;66.90;11.30;101037.00;;;;4986808;28;20222;-75
2023/11/25 09:17:15;;;;;;;2.47;0.40;;;9.70;67.00;11.40;101033.00;;;;4975098;28;20259;-76
2023/11/25 09:19:44;;;;;;;1.05;0.43;;;9.70;67.00;11.40;101032.00;;;;4991654;28;20237;-76
2023/11/25 09:22:12;;;;;;;1.75;0.32;;;9.70;67.10;11.50;101042.00;;;;5005892;28;20197;-76
2023/11/25 09:24:40;;;;;;;1.98;0.30;;;9.80;67.20;11.60;101024.00;;;;5003066;28;20226;-76
2023/11/25 09:27:06;;;;;;;1.55;0.30;;;9.80;67.30;11.60;101027.00;;;;4991982;28;20205;-76
2023/11/25 09:29:35;;;;;;;1.73;0.22;;;9.90;67.20;11.70;101027.00;;;;4991078;28;20578;-76
2023/11/25 09:32:04;;;;;;;0.82;0.20;;;9.90;67.20;11.70;101031.00;;;;4991715;28;20213;-75
2023/11/25 09:34:31;;;;;;;3.85;0.55;;;10.00;67.10;11.80;101033.00;;;;4990001;28;20687;-75
2023/11/25 09:36:58;;;;;;;0.88;0.30;;;10.10;67.00;11.80;101029.00;;;;5004252;28;20304;-75
2023/11/25 09:39:25;;;;;;;4.75;0.40;;;10.10;67.00;11.90;101035.00;;;;4971536;28;20222;-75
2023/11/25 09:41:52;;;;;;;1.38;0.40;;;10.20;66.90;11.90;101032.00;;;;4971679;28;20249;-75
2023/11/25 09:44:20;;;;;;;1.55;0.43;;;10.30;67.00;12.00;101037.00;;;;4971649;28;20699;-75
2023/11/25 09:46:50;;;;;;;1.33;0.65;;;10.30;66.90;12.10;101044.00;;;;4986295;28;20201;-76
2023/11/25 09:49:18;;;;;;;0.88;0.38;;;10.40;67.10;12.20;101036.00;;;;4990831;28;20212;-75
2023/11/25 09:51:47;;;;;;;1.67;0.50;;;10.40;67.20;12.20;101035.00;;;;4995585;28;20206;-75
2023/11/25 09:54:21;;;;;;;2.33;0.55;;;10.50;67.10;12.20;101039.00;;;;4990901;28;20752;-75
2023/11/25 09:56:51;;;;;;;1.67;0.47;;;10.60;66.90;12.30;101039.00;;;;4989415;28;20252;-75
2023/11/25 09:59:19;;;;;;;2.67;0.50;;;10.60;66.70;12.30;101040.00;;;;4991177;28;20655;-75
2023/11/25 10:01:48;;;;;;;3.28;0.75;;;10.60;66.50;12.30;101041.00;;;;4990856;28;20294;-76
2023/11/25 10:04:19;;;;;;;2.08;0.50;;;10.70;66.60;12.40;101043.00;;;;4990486;28;20205;-76
2023/11/25 10:06:54;;;;;;;2.83;0.60;;;10.70;66.70;12.40;101034.00;;;;4987707;28;20668;-76
2023/11/25 10:09:21;;;;;;;1.90;0.50;;;10.70;66.70;12.60;101040.00;;;;4985347;28;20201;-76
2023/11/25 10:11:48;;;;;;;3.45;0.45;;;10.80;67.00;12.60;101043.00;;;;4988994;28;20209;-76
2023/11/25 10:14:17;;;;;;;5.55;0.70;;;10.80;67.10;12.70;101037.00;;;;4988125;28;20236;-76
2023/11/25 10:16:46;;;;;;;3.17;0.50;;;10.90;67.10;12.80;101030.00;;;;4989884;28;20193;-76
2023/11/25 10:19:22;;;;;;;1.35;0.32;;;11.00;67.10;12.80;101040.00;;;;4988373;28;20273;-76
2023/11/25 10:21:50;;;;;;;3.20;0.60;;;11.10;66.90;12.90;101037.00;;;;4990085;28;20601;-75
2023/11/25 10:24:20;;;;;;;3.13;1.15;;;11.10;66.80;12.90;101044.00;;;;4995551;28;20209;-75
2023/11/25 10:26:50;;;;;;;4.13;0.70;;;11.20;66.70;13.00;101040.00;;;;4988946;28;20202;-76
2023/11/25 10:29:20;;;;;;;2.95;0.55;;;11.20;66.60;13.00;101026.00;;;;4989732;28;20204;-75
2023/11/25 10:31:56;;;;;;;2.65;0.65;;;11.30;66.40;13.00;101020.00;;;;4989995;28;20206;-76
2023/11/25 10:34:26;;;;;;;3.03;0.70;;;11.30;66.20;13.00;101030.00;;;;4987829;28;20225;-75
2023/11/25 10:36:54;;;;;;;2.42;0.65;;;11.40;66.20;13.00;101027.00;;;;4990307;28;20209;-75
2023/11/25 10:39:23;;;;;;;4.85;0.93;;;11.40;66.10;13.10;101031.00;;;;4989717;28;20224;-75
2023/11/25 10:41:51;;;;;;;8.35;1.05;;;11.40;66.20;13.10;101026.00;;;;4989270;28;20205;-75
2023/11/25 10:44:19;;;;;;;6.05;0.95;;;11.40;66.30;13.20;101028.00;;;;4989010;28;20730;-76
2023/11/25 10:46:47;;;;;;;2.30;0.82;;;11.40;66.30;13.20;101015.00;;;;5001068;28;20278;-76
2023/11/25 10:49:18;;;;;;;4.00;0.70;;;11.50;66.40;13.20;101013.00;;;;4991813;28;20209;-75
2023/11/25 10:51:47;;;;;;;5.00;0.70;;;11.60;66.40;13.20;101002.00;;;;4993036;28;20406;-76
2023/11/25 10:54:18;;;;;;;2.65;0.50;;;11.60;66.10;13.20;101009.00;;;;4982672;28;20234;-75
2023/11/25 10:56:46;;;;;;;6.63;0.80;;;11.70;66.10;13.30;101006.00;;;;4988829;28;20623;-76
2023/11/25 10:59:13;;;;;;;3.42;0.50;;;11.70;66.00;13.40;101023.00;;;;4987472;28;20206;-76